sensor_id;sensor_type;location;lat;lon;timestamp;temperature;humidity
4324;DHT22;2175;51.018;6.994;2023-07-13T00:00:03;19.10;99.90
4324;DHT22;2175;51.018;6.994;2023-07-13T00:02:34;19.00;99.90
4324;DHT22;2175;51.018;6.994;2023-07-13T00:04:59;19.00;99.90
4324;DHT22;2175;51.018;6.994;2023-07-13T00:07:25;18.90;99.90
4324;DHT22;2175;51.018;6.994;2023-07-13T00:09:51;18.90;99.90
4324;DHT22;2175;51.018;6.994;2023-07-13T00:12:28;18.90;99.90
4324;DHT22;2175;51.018;6.994;2023-07-13T00:14:57;18.80;99.90
4324;DHT22;2175;51.018;6.994;2023-07-13T00:17:24;18.80;99.90
4324;DHT22;2175;51.018;6.994;2023-07-13T00:19:50;18.60;99.90
4324;DHT22;2175;51.018;6.994;2023-07-13T00:22:15;18.60;99.90
4324;DHT22;2175;51.018;6.994;2023-07-13T00:24:44;18.60;99.90
4324;DHT22;2175;51.018;6.994;2023-07-13T00:27:09;18.60;99.90
4324;DHT22;2175;51.018;6.994;2023-07-13T00:29:36;18.50;99.90
4324;DHT22;2175;51.018;6.994;2023-07-13T00:32:03;18.50;99.90
4324;DHT22;2175;51.018;6.994;2023-07-13T00:34:29;18.60;99.90
4324;DHT22;2175;51.018;6.994;2023-07-13T00:36:55;18.70;99.90
4324;DHT22;2175;51.018;6.994;2023-07-13T00:39:21;18.60;99.90
4324;DHT22;2175;51.018;6.994;2023-07-13T00:41:48;18.50;99.90
4324;DHT22;2175;51.018;6.994;2023-07-13T00:44:14;18.60;99.90
4324;DHT22;2175;51.018;6.994;2023-07-13T00:46:41;18.70;99.90
4324;DHT22;2175;51.018;6.994;2023-07-13T00:49:10;18.60;99.90
4324;DHT22;2175;51.018;6.994;2023-07-13T00:51:41;18.60;99.90
4324;DHT22;2175;51.018;6.994;2023-07-13T00:54:11;18.60;99.90
4324;DHT22;2175;51.018;6.994;2023-07-13T00:56:40;18.60;99.90
4324;DHT22;2175;51.018;6.994;2023-07-13T00:59:08;18.50;99.90
4324;DHT22;2175;51.018;6.994;2023-07-13T01:01:36;18.50;99.90
4324;DHT22;2175;51.018;6.994;2023-07-13T01:04:02;18.50;99.90
4324;DHT22;2175;51.018;6.994;2023-07-13T01:06:28;18.50;99.90
4324;DHT22;2175;51.018;6.994;2023-07-13T01:08:56;18.50;99.90
4324;DHT22;2175;51.018;6.994;2023-07-13T01:11:22;18.40;99.90
4324;DHT22;2175;51.018;6.994;2023-07-13T01:13:48;18.40;99.90
4324;DHT22;2175;51.018;6.994;2023-07-13T01:16:25;18.40;99.90
4324;DHT22;2175;51.018;6.994;2023-07-13T01:18:51;18.40;99.90
4324;DHT22;2175;51.018;6.994;2023-07-13T01:21:16;18.30;99.90
4324;DHT22;2175;51.018;6.994;2023-07-13T01:23:44;18.20;99.90
4324;DHT22;2175;51.018;6.994;2023-07-13T01:26:10;18.20;99.90
4324;DHT22;2175;51.018;6.994;2023-07-13T01:28:37;18.20;99.90
4324;DHT22;2175;51.018;6.994;2023-07-13T01:31:03;18.20;99.90
4324;DHT22;2175;51.018;6.994;2023-07-13T01:33:29;18.10;99.90
4324;DHT22;2175;51.018;6.994;2023-07-13T01:35:55;18.10;99.90
4324;DHT22;2175;51.018;6.994;2023-07-13T01:38:23;18.10;99.90
4324;DHT22;2175;51.018;6.994;2023-07-13T01:40:50;18.10;99.90
4324;DHT22;2175;51.018;6.994;2023-07-13T01:43:16;17.90;99.90
4324;DHT22;2175;51.018;6.994;2023-07-13T01:45:42;17.90;99.90
4324;DHT22;2175;51.018;6.994;2023-07-13T01:48:09;17.90;99.90
4324;DHT22;2175;51.018;6.994;2023-07-13T01:50:35;17.80;99.90
4324;DHT22;2175;51.018;6.994;2023-07-13T01:53:00;17.80;99.90
4324;DHT22;2175;51.018;6.994;2023-07-13T01:55:28;17.80;99.90
4324;DHT22;2175;51.018;6.994;2023-07-13T01:57:54;17.80;99.90
4324;DHT22;2175;51.018;6.994;2023-07-13T02:00:19;17.70;99.90
4324;DHT22;2175;51.018;6.994;2023-07-13T02:02:45;17.80;99.90
4324;DHT22;2175;51.018;6.994;2023-07-13T02:05:12;17.90;99.90
4324;DHT22;2175;51.018;6.994;2023-07-13T02:07:38;17.80;99.90
4324;DHT22;2175;51.018;6.994;2023-07-13T02:10:05;17.70;99.90
4324;DHT22;2175;51.018;6.994;2023-07-13T02:12:31;17.60;99.90
4324;DHT22;2175;51.018;6.994;2023-07-13T02:14:57;17.70;99.90
4324;DHT22;2175;51.018;6.994;2023-07-13T02:17:22;17.60;99.90
4324;DHT22;2175;51.018;6.994;2023-07-13T02:19:48;17.70;99.90
4324;DHT22;2175;51.018;6.994;2023-07-13T02:22:14;17.70;99.90
4324;DHT22;2175;51.018;6.994;2023-07-13T02:24:39;17.70;99.90
4324;DHT22;2175;51.018;6.994;2023-07-13T02:27:08;17.70;99.90
4324;DHT22;2175;51.018;6.994;2023-07-13T02:29:33;17.50;99.90
4324;DHT22;2175;51.018;6.994;2023-07-13T02:31:59;17.50;99.90
4324;DHT22;2175;51.018;6.994;2023-07-13T02:34:25;17.60;99.90
4324;DHT22;2175;51.018;6.994;2023-07-13T02:36:50;17.50;99.90
4324;DHT22;2175;51.018;6.994;2023-07-13T02:39:16;17.50;99.90
4324;DHT22;2175;51.018;6.994;2023-07-13T02:41:42;17.50;99.90
4324;DHT22;2175;51.018;6.994;2023-07-13T02:44:07;17.60;99.90
4324;DHT22;2175;51.018;6.994;2023-07-13T02:46:35;17.50;99.90
4324;DHT22;2175;51.018;6.994;2023-07-13T02:49:01;17.50;99.90
4324;DHT22;2175;51.018;6.994;2023-07-13T02:51:27;17.50;99.90
4324;DHT22;2175;51.018;6.994;2023-07-13T02:53:53;17.40;99.90
4324;DHT22;2175;51.018;6.994;2023-07-13T02:56:27;17.40;99.90
4324;DHT22;2175;51.018;6.994;2023-07-13T02:58:53;17.30;99.90
4324;DHT22;2175;51.018;6.994;2023-07-13T03:01:20;17.20;99.90
4324;DHT22;2175;51.018;6.994;2023-07-13T03:03:47;17.20;99.90
4324;DHT22;2175;51.018;6.994;2023-07-13T03:06:14;17.20;99.90
4324;DHT22;2175;51.018;6.994;2023-07-13T03:08:40;17.20;99.90
4324;DHT22;2175;51.018;6.994;2023-07-13T03:11:08;17.10;99.90
4324;DHT22;2175;51.018;6.994;2023-07-13T03:13:36;17.10;99.90
4324;DHT22;2175;51.018;6.994;2023-07-13T03:16:02;17.20;99.90
4324;DHT22;2175;51.018;6.994;2023-07-13T03:18:28;17.30;99.90
4324;DHT22;2175;51.018;6.994;2023-07-13T03:20:54;17.30;99.90
4324;DHT22;2175;51.018;6.994;2023-07-13T03:23:21;17.40;99.90
4324;DHT22;2175;51.018;6.994;2023-07-13T03:25:47;17.30;99.90
4324;DHT22;2175;51.018;6.994;2023-07-13T03:28:14;17.30;99.90
4324;DHT22;2175;51.018;6.994;2023-07-13T03:30:40;17.40;99.90
4324;DHT22;2175;51.018;6.994;2023-07-13T03:33:06;17.30;99.90
4324;DHT22;2175;51.018;6.994;2023-07-13T03:35:32;17.20;99.90
4324;DHT22;2175;51.018;6.994;2023-07-13T03:37:58;17.30;99.90
4324;DHT22;2175;51.018;6.994;2023-07-13T03:40:25;17.20;99.90
4324;DHT22;2175;51.018;6.994;2023-07-13T03:42:51;17.10;99.90
4324;DHT22;2175;51.018;6.994;2023-07-13T03:45:17;17.10;99.90
4324;DHT22;2175;51.018;6.994;2023-07-13T03:47:43;17.10;99.90
4324;DHT22;2175;51.018;6.994;2023-07-13T03:50:09;17.20;99.90
4324;DHT22;2175;51.018;6.994;2023-07-13T03:52:35;17.10;99.90
4324;DHT22;2175;51.018;6.994;2023-07-13T03:55:00;17.20;99.90
4324;DHT22;2175;51.018;6.994;2023-07-13T03:57:26;17.20;99.90
4324;DHT22;2175;51.018;6.994;2023-07-13T03:59:52;17.10;99.90
4324;DHT22;2175;51.018;6.994;2023-07-13T04:02:18;17.20;99.90
4324;DHT22;2175;51.018;6.994;2023-07-13T04:04:43;17.20;99.90
4324;DHT22;2175;51.018;6.994;2023-07-13T04:07:09;17.20;99.90
4324;DHT22;2175;51.018;6.994;2023-07-13T04:09:35;17.20;99.90
4324;DHT22;2175;51.018;6.994;2023-07-13T04:12:01;17.10;99.90
4324;DHT22;2175;51.018;6.994;2023-07-13T04:14:27;17.20;99.90
4324;DHT22;2175;51.018;6.994;2023-07-13T04:16:52;17.20;99.90
4324;DHT22;2175;51.018;6.994;2023-07-13T04:19:20;17.30;99.90
4324;DHT22;2175;51.018;6.994;2023-07-13T04:21:46;17.20;99.90
4324;DHT22;2175;51.018;6.994;2023-07-13T04:24:11;17.10;99.90
4324;DHT22;2175;51.018;6.994;2023-07-13T04:26:38;17.20;99.90
4324;DHT22;2175;51.018;6.994;2023-07-13T04:29:04;17.20;99.90
4324;DHT22;2175;51.018;6.994;2023-07-13T04:31:30;17.30;99.90
4324;DHT22;2175;51.018;6.994;2023-07-13T04:33:56;17.20;99.90
4324;DHT22;2175;51.018;6.994;2023-07-13T04:36:22;17.30;99.90
4324;DHT22;2175;51.018;6.994;2023-07-13T04:38:48;17.20;99.90
4324;DHT22;2175;51.018;6.994;2023-07-13T04:41:15;17.20;99.90
4324;DHT22;2175;51.018;6.994;2023-07-13T04:43:41;17.20;99.90
4324;DHT22;2175;51.018;6.994;2023-07-13T04:46:08;17.20;99.90
4324;DHT22;2175;51.018;6.994;2023-07-13T04:48:35;17.30;99.90
4324;DHT22;2175;51.018;6.994;2023-07-13T04:51:02;17.20;99.90
4324;DHT22;2175;51.018;6.994;2023-07-13T04:53:28;17.20;99.90
4324;DHT22;2175;51.018;6.994;2023-07-13T04:55:54;17.30;99.90
4324;DHT22;2175;51.018;6.994;2023-07-13T04:58:20;17.30;99.90
4324;DHT22;2175;51.018;6.994;2023-07-13T05:00:47;17.30;99.90
4324;DHT22;2175;51.018;6.994;2023-07-13T05:03:12;17.20;99.90
4324;DHT22;2175;51.018;6.994;2023-07-13T05:05:38;17.30;99.90
4324;DHT22;2175;51.018;6.994;2023-07-13T05:08:04;17.30;99.90
4324;DHT22;2175;51.018;6.994;2023-07-13T05:10:29;17.30;99.90
4324;DHT22;2175;51.018;6.994;2023-07-13T05:12:55;17.30;99.90
4324;DHT22;2175;51.018;6.994;2023-07-13T05:15:22;17.40;99.90
4324;DHT22;2175;51.018;6.994;2023-07-13T05:17:49;17.40;99.90
4324;DHT22;2175;51.018;6.994;2023-07-13T05:20:16;17.40;99.90
4324;DHT22;2175;51.018;6.994;2023-07-13T05:22:43;17.50;99.90
4324;DHT22;2175;51.018;6.994;2023-07-13T05:25:09;17.50;99.90
4324;DHT22;2175;51.018;6.994;2023-07-13T05:27:35;17.50;99.90
4324;DHT22;2175;51.018;6.994;2023-07-13T05:30:02;17.50;99.90
4324;DHT22;2175;51.018;6.994;2023-07-13T05:32:29;17.50;99.90
4324;DHT22;2175;51.018;6.994;2023-07-13T05:34:54;17.50;99.90
4324;DHT22;2175;51.018;6.994;2023-07-13T05:37:20;17.50;99.90
4324;DHT22;2175;51.018;6.994;2023-07-13T05:39:45;17.60;99.90
4324;DHT22;2175;51.018;6.994;2023-07-13T05:42:11;17.60;99.90
4324;DHT22;2175;51.018;6.994;2023-07-13T05:44:37;17.70;99.90
4324;DHT22;2175;51.018;6.994;2023-07-13T05:47:02;17.80;99.90
4324;DHT22;2175;51.018;6.994;2023-07-13T05:49:29;17.80;99.90
4324;DHT22;2175;51.018;6.994;2023-07-13T05:51:56;17.90;99.90
4324;DHT22;2175;51.018;6.994;2023-07-13T05:54:21;17.90;99.90
4324;DHT22;2175;51.018;6.994;2023-07-13T05:56:47;18.00;99.90
4324;DHT22;2175;51.018;6.994;2023-07-13T05:59:13;18.10;99.90
4324;DHT22;2175;51.018;6.994;2023-07-13T06:01:38;18.10;99.90
4324;DHT22;2175;51.018;6.994;2023-07-13T06:04:04;18.10;99.90
4324;DHT22;2175;51.018;6.994;2023-07-13T06:06:30;18.10;99.90
4324;DHT22;2175;51.018;6.994;2023-07-13T06:08:56;18.20;99.90
4324;DHT22;2175;51.018;6.994;2023-07-13T06:11:24;18.20;99.90
4324;DHT22;2175;51.018;6.994;2023-07-13T06:13:51;18.20;99.90
4324;DHT22;2175;51.018;6.994;2023-07-13T06:16:17;18.20;99.90
4324;DHT22;2175;51.018;6.994;2023-07-13T06:18:43;18.10;99.90
4324;DHT22;2175;51.018;6.994;2023-07-13T06:21:17;18.10;99.90
4324;DHT22;2175;51.018;6.994;2023-07-13T06:23:44;18.20;99.90
4324;DHT22;2175;51.018;6.994;2023-07-13T06:26:10;18.20;99.90
4324;DHT22;2175;51.018;6.994;2023-07-13T06:28:36;18.20;99.90
4324;DHT22;2175;51.018;6.994;2023-07-13T06:31:04;18.30;99.90
4324;DHT22;2175;51.018;6.994;2023-07-13T06:33:29;18.20;99.90
4324;DHT22;2175;51.018;6.994;2023-07-13T06:35:55;18.20;99.90
4324;DHT22;2175;51.018;6.994;2023-07-13T06:38:21;18.30;99.90
4324;DHT22;2175;51.018;6.994;2023-07-13T06:40:47;18.40;99.90
4324;DHT22;2175;51.018;6.994;2023-07-13T06:43:12;18.40;99.90
4324;DHT22;2175;51.018;6.994;2023-07-13T06:45:46;18.50;99.90
4324;DHT22;2175;51.018;6.994;2023-07-13T06:48:14;18.50;99.90
4324;DHT22;2175;51.018;6.994;2023-07-13T06:50:41;18.60;99.90
4324;DHT22;2175;51.018;6.994;2023-07-13T06:53:07;18.80;99.90
4324;DHT22;2175;51.018;6.994;2023-07-13T06:55:32;18.90;99.90
4324;DHT22;2175;51.018;6.994;2023-07-13T06:57:58;18.90;99.90
4324;DHT22;2175;51.018;6.994;2023-07-13T07:00:24;19.00;99.90
4324;DHT22;2175;51.018;6.994;2023-07-13T07:02:49;19.00;99.90
4324;DHT22;2175;51.018;6.994;2023-07-13T07:05:15;19.00;99.90
4324;DHT22;2175;51.018;6.994;2023-07-13T07:07:40;19.10;99.90
4324;DHT22;2175;51.018;6.994;2023-07-13T07:10:06;19.00;99.90
4324;DHT22;2175;51.018;6.994;2023-07-13T07:12:32;19.20;99.90
4324;DHT22;2175;51.018;6.994;2023-07-13T07:14:58;19.30;99.90
4324;DHT22;2175;51.018;6.994;2023-07-13T07:17:23;19.50;99.90
4324;DHT22;2175;51.018;6.994;2023-07-13T07:19:50;19.60;99.90
4324;DHT22;2175;51.018;6.994;2023-07-13T07:22:16;19.60;99.90
4324;DHT22;2175;51.018;6.994;2023-07-13T07:24:41;19.50;99.90
4324;DHT22;2175;51.018;6.994;2023-07-13T07:27:07;19.40;99.90
4324;DHT22;2175;51.018;6.994;2023-07-13T07:29:33;19.40;99.90
4324;DHT22;2175;51.018;6.994;2023-07-13T07:31:59;19.40;99.90
4324;DHT22;2175;51.018;6.994;2023-07-13T07:34:25;19.60;99.90
4324;DHT22;2175;51.018;6.994;2023-07-13T07:36:51;19.80;99.90
4324;DHT22;2175;51.018;6.994;2023-07-13T07:39:16;20.00;99.90
4324;DHT22;2175;51.018;6.994;2023-07-13T07:41:42;20.10;99.90
4324;DHT22;2175;51.018;6.994;2023-07-13T07:44:08;20.10;99.90
4324;DHT22;2175;51.018;6.994;2023-07-13T07:46:35;20.10;99.90
4324;DHT22;2175;51.018;6.994;2023-07-13T07:49:00;20.00;99.90
4324;DHT22;2175;51.018;6.994;2023-07-13T07:51:26;20.00;99.90
4324;DHT22;2175;51.018;6.994;2023-07-13T07:53:52;20.10;99.90
4324;DHT22;2175;51.018;6.994;2023-07-13T07:56:17;20.10;99.90
4324;DHT22;2175;51.018;6.994;2023-07-13T07:58:43;20.20;99.90
4324;DHT22;2175;51.018;6.994;2023-07-13T08:01:09;20.20;99.90
4324;DHT22;2175;51.018;6.994;2023-07-13T08:03:35;20.50;99.90
4324;DHT22;2175;51.018;6.994;2023-07-13T08:06:01;20.70;99.90
4324;DHT22;2175;51.018;6.994;2023-07-13T08:08:27;20.90;99.90
4324;DHT22;2175;51.018;6.994;2023-07-13T08:10:53;21.00;99.90
4324;DHT22;2175;51.018;6.994;2023-07-13T08:13:18;21.20;99.90
4324;DHT22;2175;51.018;6.994;2023-07-13T08:15:45;21.10;99.90
4324;DHT22;2175;51.018;6.994;2023-07-13T08:18:11;21.00;99.90
4324;DHT22;2175;51.018;6.994;2023-07-13T08:20:38;21.20;99.90
4324;DHT22;2175;51.018;6.994;2023-07-13T08:23:04;21.50;99.90
4324;DHT22;2175;51.018;6.994;2023-07-13T08:25:30;21.80;99.90
4324;DHT22;2175;51.018;6.994;2023-07-13T08:27:55;21.90;99.90
4324;DHT22;2175;51.018;6.994;2023-07-13T08:30:21;22.20;99.90
4324;DHT22;2175;51.018;6.994;2023-07-13T08:32:46;22.20;99.90
4324;DHT22;2175;51.018;6.994;2023-07-13T08:35:12;22.50;99.90
4324;DHT22;2175;51.018;6.994;2023-07-13T08:37:39;22.20;99.90
4324;DHT22;2175;51.018;6.994;2023-07-13T08:40:05;21.90;99.90
4324;DHT22;2175;51.018;6.994;2023-07-13T08:48:13;22.20;99.90
4324;DHT22;2175;51.018;6.994;2023-07-13T08:50:51;22.30;99.90
4324;DHT22;2175;51.018;6.994;2023-07-13T08:53:21;22.20;99.90
4324;DHT22;2175;51.018;6.994;2023-07-13T08:55:53;22.10;99.90
4324;DHT22;2175;51.018;6.994;2023-07-13T08:58:22;22.20;99.90
4324;DHT22;2175;51.018;6.994;2023-07-13T09:12:21;22.70;99.90
4324;DHT22;2175;51.018;6.994;2023-07-13T09:14:52;22.80;99.90
4324;DHT22;2175;51.018;6.994;2023-07-13T09:17:32;23.10;99.90
4324;DHT22;2175;51.018;6.994;2023-07-13T09:23:04;23.20;99.90
4324;DHT22;2175;51.018;6.994;2023-07-13T09:25:32;23.00;99.90
4324;DHT22;2175;51.018;6.994;2023-07-13T09:28:10;23.20;99.90
4324;DHT22;2175;51.018;6.994;2023-07-13T09:30:49;23.20;99.90
4324;DHT22;2175;51.018;6.994;2023-07-13T09:33:17;23.30;99.90
4324;DHT22;2175;51.018;6.994;2023-07-13T09:35:42;23.70;99.90
4324;DHT22;2175;51.018;6.994;2023-07-13T09:38:16;23.70;99.90
4324;DHT22;2175;51.018;6.994;2023-07-13T09:43:26;23.90;99.90
4324;DHT22;2175;51.018;6.994;2023-07-13T09:45:55;23.70;99.90
4324;DHT22;2175;51.018;6.994;2023-07-13T09:48:21;23.70;99.90
4324;DHT22;2175;51.018;6.994;2023-07-13T09:50:47;23.50;99.90
4324;DHT22;2175;51.018;6.994;2023-07-13T09:53:15;23.50;99.90
4324;DHT22;2175;51.018;6.994;2023-07-13T09:55:44;23.50;99.90
4324;DHT22;2175;51.018;6.994;2023-07-13T09:58:19;23.30;99.90
4324;DHT22;2175;51.018;6.994;2023-07-13T10:00:58;23.70;99.90
4324;DHT22;2175;51.018;6.994;2023-07-13T10:03:30;23.70;99.90
4324;DHT22;2175;51.018;6.994;2023-07-13T10:06:11;23.50;99.90
4324;DHT22;2175;51.018;6.994;2023-07-13T10:08:37;23.40;99.90
4324;DHT22;2175;51.018;6.994;2023-07-13T10:11:18;23.70;99.90
4324;DHT22;2175;51.018;6.994;2023-07-13T10:13:54;23.90;99.90
4324;DHT22;2175;51.018;6.994;2023-07-13T10:16:26;24.20;99.90
4324;DHT22;2175;51.018;6.994;2023-07-13T10:19:00;24.20;99.90
4324;DHT22;2175;51.018;6.994;2023-07-13T10:21:32;24.50;99.90
4324;DHT22;2175;51.018;6.994;2023-07-13T10:26:58;24.70;99.90
4324;DHT22;2175;51.018;6.994;2023-07-13T10:29:27;24.50;99.90
4324;DHT22;2175;51.018;6.994;2023-07-13T10:31:54;24.20;99.90
4324;DHT22;2175;51.018;6.994;2023-07-13T10:34:20;24.20;99.90
4324;DHT22;2175;51.018;6.994;2023-07-13T10:36:47;24.00;99.90
4324;DHT22;2175;51.018;6.994;2023-07-13T10:39:20;23.90;99.90
4324;DHT22;2175;51.018;6.994;2023-07-13T10:41:59;24.00;99.90
4324;DHT22;2175;51.018;6.994;2023-07-13T10:44:28;24.20;99.90
4324;DHT22;2175;51.018;6.994;2023-07-13T10:46:58;24.80;99.90
4324;DHT22;2175;51.018;6.994;2023-07-13T10:49:27;25.20;99.90
4324;DHT22;2175;51.018;6.994;2023-07-13T10:51:54;25.10;99.90
4324;DHT22;2175;51.018;6.994;2023-07-13T10:54:26;25.30;99.90
4324;DHT22;2175;51.018;6.994;2023-07-13T10:57:14;25.40;99.90
4324;DHT22;2175;51.018;6.994;2023-07-13T10:59:42;25.20;99.90
4324;DHT22;2175;51.018;6.994;2023-07-13T11:02:26;24.80;99.90
4324;DHT22;2175;51.018;6.994;2023-07-13T11:04:54;24.10;99.90
4324;DHT22;2175;51.018;6.994;2023-07-13T11:07:27;23.70;99.90
4324;DHT22;2175;51.018;6.994;2023-07-13T11:09:58;23.50;99.90
4324;DHT22;2175;51.018;6.994;2023-07-13T11:22:46;23.30;99.90
4324;DHT22;2175;51.018;6.994;2023-07-13T11:36:07;23.40;99.90
4324;DHT22;2175;51.018;6.994;2023-07-13T11:38:55;23.70;99.90
4324;DHT22;2175;51.018;6.994;2023-07-13T11:41:31;23.90;99.90
4324;DHT22;2175;51.018;6.994;2023-07-13T11:44:20;23.80;99.90
4324;DHT22;2175;51.018;6.994;2023-07-13T11:46:52;23.80;99.90
4324;DHT22;2175;51.018;6.994;2023-07-13T11:49:20;23.70;99.90
4324;DHT22;2175;51.018;6.994;2023-07-13T11:51:46;23.60;99.90
4324;DHT22;2175;51.018;6.994;2023-07-13T11:56:53;23.20;99.90
4324;DHT22;2175;51.018;6.994;2023-07-13T11:59:20;23.30;99.90
4324;DHT22;2175;51.018;6.994;2023-07-13T12:01:51;23.20;99.90
4324;DHT22;2175;51.018;6.994;2023-07-13T12:04:28;23.40;99.90
4324;DHT22;2175;51.018;6.994;2023-07-13T12:07:11;23.40;99.90
4324;DHT22;2175;51.018;6.994;2023-07-13T12:09:39;23.40;99.90
4324;DHT22;2175;51.018;6.994;2023-07-13T12:12:28;23.40;99.90
4324;DHT22;2175;51.018;6.994;2023-07-13T12:14:53;23.50;99.90
4324;DHT22;2175;51.018;6.994;2023-07-13T12:17:22;23.60;99.90
4324;DHT22;2175;51.018;6.994;2023-07-13T12:19:49;23.60;99.90
4324;DHT22;2175;51.018;6.994;2023-07-13T12:22:17;23.50;99.90
4324;DHT22;2175;51.018;6.994;2023-07-13T12:24:44;23.60;99.90
4324;DHT22;2175;51.018;6.994;2023-07-13T12:27:22;23.60;99.90
4324;DHT22;2175;51.018;6.994;2023-07-13T12:29:56;23.80;99.90
4324;DHT22;2175;51.018;6.994;2023-07-13T12:32:24;23.80;99.90
4324;DHT22;2175;51.018;6.994;2023-07-13T12:34:57;23.60;99.90
4324;DHT22;2175;51.018;6.994;2023-07-13T12:37:28;23.50;99.90
4324;DHT22;2175;51.018;6.994;2023-07-13T12:39:56;23.50;99.90
4324;DHT22;2175;51.018;6.994;2023-07-13T12:45:02;23.90;99.90
4324;DHT22;2175;51.018;6.994;2023-07-13T12:47:29;24.20;99.90
4324;DHT22;2175;51.018;6.994;2023-07-13T12:49:57;24.30;99.90
4324;DHT22;2175;51.018;6.994;2023-07-13T12:52:31;24.20;99.90
4324;DHT22;2175;51.018;6.994;2023-07-13T12:55:16;24.20;99.90
4324;DHT22;2175;51.018;6.994;2023-07-13T12:57:52;24.50;99.90
4324;DHT22;2175;51.018;6.994;2023-07-13T13:00:30;24.50;99.90
4324;DHT22;2175;51.018;6.994;2023-07-13T13:06:00;24.60;99.90
4324;DHT22;2175;51.018;6.994;2023-07-13T13:08:28;24.10;99.90
4324;DHT22;2175;51.018;6.994;2023-07-13T13:10:54;24.20;99.90
4324;DHT22;2175;51.018;6.994;2023-07-13T13:13:19;23.90;99.90
4324;DHT22;2175;51.018;6.994;2023-07-13T13:15:45;24.00;99.90
4324;DHT22;2175;51.018;6.994;2023-07-13T13:18:22;24.20;99.90
4324;DHT22;2175;51.018;6.994;2023-07-13T13:20:50;24.30;99.90
4324;DHT22;2175;51.018;6.994;2023-07-13T13:23:18;24.30;99.90
4324;DHT22;2175;51.018;6.994;2023-07-13T13:25:46;24.60;99.90
4324;DHT22;2175;51.018;6.994;2023-07-13T13:28:18;24.80;99.90
4324;DHT22;2175;51.018;6.994;2023-07-13T13:30:45;24.80;99.90
4324;DHT22;2175;51.018;6.994;2023-07-13T13:33:13;24.60;99.90
4324;DHT22;2175;51.018;6.994;2023-07-13T13:35:41;24.50;99.90
4324;DHT22;2175;51.018;6.994;2023-07-13T13:38:36;24.40;99.90
4324;DHT22;2175;51.018;6.994;2023-07-13T13:41:02;24.50;99.90
4324;DHT22;2175;51.018;6.994;2023-07-13T13:43:27;24.60;99.90
4324;DHT22;2175;51.018;6.994;2023-07-13T13:45:58;24.70;99.90
4324;DHT22;2175;51.018;6.994;2023-07-13T13:48:33;24.70;99.90
4324;DHT22;2175;51.018;6.994;2023-07-13T13:51:00;24.60;99.90
4324;DHT22;2175;51.018;6.994;2023-07-13T13:53:26;24.70;99.90
4324;DHT22;2175;51.018;6.994;2023-07-13T13:55:53;24.80;99.90
4324;DHT22;2175;51.018;6.994;2023-07-13T13:58:20;24.80;99.90
4324;DHT22;2175;51.018;6.994;2023-07-13T14:00:46;24.80;99.90
4324;DHT22;2175;51.018;6.994;2023-07-13T14:03:17;24.80;99.90
4324;DHT22;2175;51.018;6.994;2023-07-13T14:05:44;24.50;99.90
4324;DHT22;2175;51.018;6.994;2023-07-13T14:08:17;24.40;99.90
4324;DHT22;2175;51.018;6.994;2023-07-13T14:10:45;24.40;99.90
4324;DHT22;2175;51.018;6.994;2023-07-13T14:13:25;24.50;99.90
4324;DHT22;2175;51.018;6.994;2023-07-13T14:15:53;24.50;99.90
4324;DHT22;2175;51.018;6.994;2023-07-13T14:18:18;24.70;99.90
4324;DHT22;2175;51.018;6.994;2023-07-13T14:20:45;25.10;99.90
4324;DHT22;2175;51.018;6.994;2023-07-13T14:23:16;24.80;99.60
4324;DHT22;2175;51.018;6.994;2023-07-13T14:25:43;24.70;99.90
4324;DHT22;2175;51.018;6.994;2023-07-13T14:28:24;24.80;99.40
4324;DHT22;2175;51.018;6.994;2023-07-13T14:30:51;24.70;99.90
4324;DHT22;2175;51.018;6.994;2023-07-13T14:33:17;24.60;99.70
4324;DHT22;2175;51.018;6.994;2023-07-13T14:35:42;24.60;99.90
4324;DHT22;2175;51.018;6.994;2023-07-13T14:38:17;24.70;99.90
4324;DHT22;2175;51.018;6.994;2023-07-13T14:40:43;24.70;99.80
4324;DHT22;2175;51.018;6.994;2023-07-13T14:43:16;24.70;99.90
4324;DHT22;2175;51.018;6.994;2023-07-13T14:45:46;24.50;99.60
4324;DHT22;2175;51.018;6.994;2023-07-13T14:48:17;24.60;99.90
4324;DHT22;2175;51.018;6.994;2023-07-13T14:50:44;24.70;99.90
4324;DHT22;2175;51.018;6.994;2023-07-13T14:53:12;24.60;99.90
4324;DHT22;2175;51.018;6.994;2023-07-13T14:55:38;24.40;99.90
4324;DHT22;2175;51.018;6.994;2023-07-13T14:58:04;24.40;99.90
4324;DHT22;2175;51.018;6.994;2023-07-13T15:00:29;24.40;99.90
4324;DHT22;2175;51.018;6.994;2023-07-13T15:02:57;24.50;99.90
4324;DHT22;2175;51.018;6.994;2023-07-13T15:05:27;24.60;99.90
4324;DHT22;2175;51.018;6.994;2023-07-13T15:07:57;24.70;99.90
4324;DHT22;2175;51.018;6.994;2023-07-13T15:10:31;24.50;99.90
4324;DHT22;2175;51.018;6.994;2023-07-13T15:13:12;24.40;99.90
4324;DHT22;2175;51.018;6.994;2023-07-13T15:15:40;24.30;99.90
4324;DHT22;2175;51.018;6.994;2023-07-13T15:18:11;24.20;99.90
4324;DHT22;2175;51.018;6.994;2023-07-13T15:20:37;24.30;99.90
4324;DHT22;2175;51.018;6.994;2023-07-13T15:23:03;24.30;99.90
4324;DHT22;2175;51.018;6.994;2023-07-13T15:25:31;24.30;99.90
4324;DHT22;2175;51.018;6.994;2023-07-13T15:27:58;24.30;99.90
4324;DHT22;2175;51.018;6.994;2023-07-13T15:30:30;24.40;99.90
4324;DHT22;2175;51.018;6.994;2023-07-13T15:33:11;24.20;99.70
4324;DHT22;2175;51.018;6.994;2023-07-13T15:35:37;24.30;99.90
4324;DHT22;2175;51.018;6.994;2023-07-13T15:38:14;24.30;99.90
4324;DHT22;2175;51.018;6.994;2023-07-13T15:40:41;24.20;99.90
4324;DHT22;2175;51.018;6.994;2023-07-13T15:43:11;23.90;99.90
4324;DHT22;2175;51.018;6.994;2023-07-13T15:45:37;23.90;99.90
4324;DHT22;2175;51.018;6.994;2023-07-13T15:48:21;24.00;99.90
4324;DHT22;2175;51.018;6.994;2023-07-13T15:50:52;23.90;99.90
4324;DHT22;2175;51.018;6.994;2023-07-13T15:53:23;23.80;99.90
4324;DHT22;2175;51.018;6.994;2023-07-13T15:55:50;23.80;99.90
4324;DHT22;2175;51.018;6.994;2023-07-13T15:58:17;23.70;99.90
4324;DHT22;2175;51.018;6.994;2023-07-13T16:00:42;23.60;99.90
4324;DHT22;2175;51.018;6.994;2023-07-13T16:03:08;23.50;99.90
4324;DHT22;2175;51.018;6.994;2023-07-13T16:05:34;23.20;99.90
4324;DHT22;2175;51.018;6.994;2023-07-13T16:08:01;23.10;99.90
4324;DHT22;2175;51.018;6.994;2023-07-13T16:10:32;23.00;99.90
4324;DHT22;2175;51.018;6.994;2023-07-13T16:12:59;22.80;99.90
4324;DHT22;2175;51.018;6.994;2023-07-13T16:15:26;22.70;99.90
4324;DHT22;2175;51.018;6.994;2023-07-13T16:17:51;22.50;99.90
4324;DHT22;2175;51.018;6.994;2023-07-13T16:20:18;22.50;99.90
4324;DHT22;2175;51.018;6.994;2023-07-13T16:22:48;22.50;99.90
4324;DHT22;2175;51.018;6.994;2023-07-13T16:25:15;22.50;99.90
4324;DHT22;2175;51.018;6.994;2023-07-13T16:27:46;22.40;99.90
4324;DHT22;2175;51.018;6.994;2023-07-13T16:30:18;22.40;99.90
4324;DHT22;2175;51.018;6.994;2023-07-13T16:32:47;22.30;99.90
4324;DHT22;2175;51.018;6.994;2023-07-13T16:35:13;22.30;99.90
4324;DHT22;2175;51.018;6.994;2023-07-13T16:37:39;22.30;99.90
4324;DHT22;2175;51.018;6.994;2023-07-13T16:40:25;22.30;99.90
4324;DHT22;2175;51.018;6.994;2023-07-13T16:42:53;22.30;99.90
4324;DHT22;2175;51.018;6.994;2023-07-13T16:45:20;22.30;99.90
4324;DHT22;2175;51.018;6.994;2023-07-13T16:47:50;22.30;99.90
4324;DHT22;2175;51.018;6.994;2023-07-13T16:50:24;22.30;99.90
4324;DHT22;2175;51.018;6.994;2023-07-13T16:52:51;22.30;99.90
4324;DHT22;2175;51.018;6.994;2023-07-13T16:55:19;22.20;99.90
4324;DHT22;2175;51.018;6.994;2023-07-13T16:57:57;22.10;99.90
4324;DHT22;2175;51.018;6.994;2023-07-13T17:00:31;22.10;99.90
4324;DHT22;2175;51.018;6.994;2023-07-13T17:03:02;22.10;99.90